sensor_id;sensor_type;location;lat;lon;timestamp;P1;P2;P0
68198;PMS7003;55021;51.554;17.044;2022-07-23T00:01:14;37.25;32.75;20.50
68198;PMS7003;55021;51.554;17.044;2022-07-23T00:16:16;36.25;31.00;19.50
68198;PMS7003;55021;51.554;17.044;2022-07-23T00:31:19;43.25;33.75;21.25
68198;PMS7003;55021;51.554;17.044;2022-07-23T00:46:21;37.50;32.25;20.50
68198;PMS7003;55021;51.554;17.044;2022-07-23T01:01:24;40.25;33.25;22.25
68198;PMS7003;55021;51.554;17.044;2022-07-23T01:16:27;38.00;34.00;20.75
68198;PMS7003;55021;51.554;17.044;2022-07-23T01:31:29;38.00;32.75;21.25
68198;PMS7003;55021;51.554;17.044;2022-07-23T01:46:31;37.75;32.00;19.25
68198;PMS7003;55021;51.554;17.044;2022-07-23T02:01:34;46.00;34.25;21.00
68198;PMS7003;55021;51.554;17.044;2022-07-23T02:16:36;40.00;34.25;22.75
68198;PMS7003;55021;51.554;17.044;2022-07-23T02:31:39;40.50;33.50;22.00
68198;PMS7003;55021;51.554;17.044;2022-07-23T02:46:41;40.75;33.00;21.75
68198;PMS7003;55021;51.554;17.044;2022-07-23T03:01:44;40.75;35.50;22.75
68198;PMS7003;55021;51.554;17.044;2022-07-23T03:16:46;45.50;35.25;23.00
68198;PMS7003;55021;51.554;17.044;2022-07-23T03:31:48;43.00;36.00;22.50
68198;PMS7003;55021;51.554;17.044;2022-07-23T03:46:51;41.25;34.00;21.50
68198;PMS7003;55021;51.554;17.044;2022-07-23T04:01:53;46.75;36.25;22.50
68198;PMS7003;55021;51.554;17.044;2022-07-23T04:16:55;44.25;35.00;23.00
68198;PMS7003;55021;51.554;17.044;2022-07-23T04:31:58;44.75;36.75;23.75
68198;PMS7003;55021;51.554;17.044;2022-07-23T04:47:00;45.25;37.25;24.75
68198;PMS7003;55021;51.554;17.044;2022-07-23T05:02:03;45.00;37.75;24.75
68198;PMS7003;55021;51.554;17.044;2022-07-23T05:17:05;45.50;36.75;23.25
68198;PMS7003;55021;51.554;17.044;2022-07-23T05:32:08;45.00;34.25;22.00
68198;PMS7003;55021;51.554;17.044;2022-07-23T05:47:12;37.25;30.00;19.00
68198;PMS7003;55021;51.554;17.044;2022-07-23T06:02:15;28.75;28.50;18.00
68198;PMS7003;55021;51.554;17.044;2022-07-23T06:17:17;28.00;28.00;17.75
68198;PMS7003;55021;51.554;17.044;2022-07-23T06:32:19;27.00;26.50;17.75
68198;PMS7003;55021;51.554;17.044;2022-07-23T06:47:22;27.50;24.00;15.50
68198;PMS7003;55021;51.554;17.044;2022-07-23T07:02:24;24.75;24.00;14.50
68198;PMS7003;55021;51.554;17.044;2022-07-23T07:17:28;29.50;25.75;16.00
68198;PMS7003;55021;51.554;17.044;2022-07-23T07:32:30;23.25;22.25;14.75
68198;PMS7003;55021;51.554;17.044;2022-07-23T07:47:33;27.00;24.50;16.50
68198;PMS7003;55021;51.554;17.044;2022-07-23T08:02:40;30.00;27.25;18.50
68198;PMS7003;55021;51.554;17.044;2022-07-23T08:17:44;28.50;27.25;18.50
68198;PMS7003;55021;51.554;17.044;2022-07-23T08:32:55;29.25;27.25;18.75
68198;PMS7003;55021;51.554;17.044;2022-07-23T08:47:58;27.75;25.25;17.75
68198;PMS7003;55021;51.554;17.044;2022-07-23T09:03:01;35.00;28.50;19.25
68198;PMS7003;55021;51.554;17.044;2022-07-23T10:32:34;42.50;35.00;21.75
68198;PMS7003;55021;51.554;17.044;2022-07-23T10:47:42;43.00;35.00;22.25
68198;PMS7003;55021;51.554;17.044;2022-07-23T11:02:45;45.75;35.50;23.25
68198;PMS7003;55021;51.554;17.044;2022-07-23T11:17:59;41.00;34.50;22.75
68198;PMS7003;55021;51.554;17.044;2022-07-23T11:48:30;38.75;34.25;23.00
68198;PMS7003;55021;51.554;17.044;2022-07-23T12:03:33;44.25;35.00;22.00
68198;PMS7003;55021;51.554;17.044;2022-07-23T12:18:35;43.00;34.75;22.75
68198;PMS7003;55021;51.554;17.044;2022-07-23T12:33:39;39.00;32.00;21.00
68198;PMS7003;55021;51.554;17.044;2022-07-23T12:48:50;38.75;32.75;22.00
68198;PMS7003;55021;51.554;17.044;2022-07-23T13:04:00;38.25;33.00;21.25
68198;PMS7003;55021;51.554;17.044;2022-07-23T13:19:05;34.50;30.75;21.00
68198;PMS7003;55021;51.554;17.044;2022-07-23T13:34:07;39.75;31.75;20.00
68198;PMS7003;55021;51.554;17.044;2022-07-23T13:49:10;42.00;34.00;22.00
68198;PMS7003;55021;51.554;17.044;2022-07-23T14:04:12;38.75;33.50;22.00
68198;PMS7003;55021;51.554;17.044;2022-07-23T14:19:15;37.25;32.00;21.00
68198;PMS7003;55021;51.554;17.044;2022-07-23T14:34:17;37.00;32.50;21.25
68198;PMS7003;55021;51.554;17.044;2022-07-23T14:49:20;39.00;32.00;21.00
68198;PMS7003;55021;51.554;17.044;2022-07-23T15:04:22;41.50;35.25;23.00
68198;PMS7003;55021;51.554;17.044;2022-07-23T15:19:25;44.75;36.25;22.50
68198;PMS7003;55021;51.554;17.044;2022-07-23T15:34:27;45.00;35.50;22.50
68198;PMS7003;55021;51.554;17.044;2022-07-23T15:49:30;41.00;33.25;21.50
68198;PMS7003;55021;51.554;17.044;2022-07-23T16:04:33;39.75;33.50;21.75
68198;PMS7003;55021;51.554;17.044;2022-07-23T16:19:35;35.00;31.00;20.00
68198;PMS7003;55021;51.554;17.044;2022-07-23T16:34:38;32.75;29.00;19.00
68198;PMS7003;55021;51.554;17.044;2022-07-23T16:49:40;32.00;26.50;18.00
68198;PMS7003;55021;51.554;17.044;2022-07-23T17:04:42;26.00;25.00;16.75
68198;PMS7003;55021;51.554;17.044;2022-07-23T17:19:45;34.75;32.00;20.75
68198;PMS7003;55021;51.554;17.044;2022-07-23T17:34:47;37.75;32.75;22.75
68198;PMS7003;55021;51.554;17.044;2022-07-23T17:49:50;32.25;29.50;19.00
68198;PMS7003;55021;51.554;17.044;2022-07-23T18:04:52;31.75;28.25;18.25
68198;PMS7003;55021;51.554;17.044;2022-07-23T18:19:55;20.00;19.50;12.00
68198;PMS7003;55021;51.554;17.044;2022-07-23T18:34:57;21.75;20.25;13.00
68198;PMS7003;55021;51.554;17.044;2022-07-23T18:50:00;24.50;20.50;13.00
68198;PMS7003;55021;51.554;17.044;2022-07-23T19:05:02;25.50;20.50;13.00
68198;PMS7003;55021;51.554;17.044;2022-07-23T19:20:06;23.00;21.50;13.75
68198;PMS7003;55021;51.554;17.044;2022-07-23T19:35:09;26.25;24.50;15.00
68198;PMS7003;55021;51.554;17.044;2022-07-23T19:50:12;24.50;22.75;15.00
68198;PMS7003;55021;51.554;17.044;2022-07-23T20:05:15;26.75;25.25;17.00
68198;PMS7003;55021;51.554;17.044;2022-07-23T20:20:18;30.00;28.00;16.50
68198;PMS7003;55021;51.554;17.044;2022-07-23T20:35:20;31.00;25.75;16.75
68198;PMS7003;55021;51.554;17.044;2022-07-23T20:50:22;29.50;28.50;18.50
68198;PMS7003;55021;51.554;17.044;2022-07-23T21:05:28;33.50;28.75;16.50
68198;PMS7003;55021;51.554;17.044;2022-07-23T21:20:30;26.00;24.00;15.00
68198;PMS7003;55021;51.554;17.044;2022-07-23T21:35:33;28.75;27.25;17.00
68198;PMS7003;55021;51.554;17.044;2022-07-23T21:50:36;26.50;25.75;17.00
68198;PMS7003;55021;51.554;17.044;2022-07-23T22:05:39;34.00;28.75;18.25
68198;PMS7003;55021;51.554;17.044;2022-07-23T22:20:41;32.00;28.00;18.00
68198;PMS7003;55021;51.554;17.044;2022-07-23T22:35:44;29.50;26.50;15.75
68198;PMS7003;55021;51.554;17.044;2022-07-23T22:50:46;28.50;27.50;16.50
68198;PMS7003;55021;51.554;17.044;2022-07-23T23:05:49;30.50;27.75;18.50
68198;PMS7003;55021;51.554;17.044;2022-07-23T23:20:51;24.75;21.25;13.75
68198;PMS7003;55021;51.554;17.044;2022-07-23T23:35:53;27.25;26.00;17.75
68198;PMS7003;55021;51.554;17.044;2022-07-23T23:50:56;31.75;28.75;17.75
